Time;durP1;ratioP1;P1;durP2;ratioP2;P2;SDS_P1;SDS_P2;PMS_P1;PMS_P2;Temp;Humidity;BMP_temperature;BMP_pressure;BME280_temperature;BME280_humidity;BME280_pressure;Samples;Min_cycle;Max_cycle;Signal;HPM_P1;HPM_P2
2023/06/30 00:01:01;;;;;;;12.45;6.13;;;20.60;99.90;;;20.89;100.00;100667.88;5222988;28;20049;-47
2023/06/30 00:03:33;;;;;;;12.30;6.18;;;20.50;99.90;;;20.85;100.00;100667.00;5223685;28;20044;-48
2023/06/30 00:06:05;;;;;;;12.18;6.20;;;20.50;99.90;;;20.84;100.00;100665.25;5222991;28;20055;-48
2023/06/30 00:08:38;;;;;;;10.13;4.93;;;20.50;99.90;;;20.86;100.00;100660.84;5223491;28;20140;-48
2023/06/30 00:11:16;;;;;;;10.90;4.45;;;20.50;99.90;;;20.90;100.00;100666.09;5222480;28;20045;-48
2023/06/30 00:13:49;;;;;;;11.02;5.07;;;20.50;99.90;;;20.90;100.00;100664.31;5222205;28;21255;-48
2023/06/30 00:16:21;;;;;;;11.48;5.03;;;20.50;99.90;;;20.92;100.00;100665.16;5222027;28;20041;-48
2023/06/30 00:18:55;;;;;;;10.35;5.13;;;20.50;99.90;;;20.91;100.00;100666.06;5220147;28;20063;-48
2023/06/30 00:21:28;;;;;;;13.55;6.05;;;20.50;99.90;;;20.89;100.00;100667.00;5223262;28;20051;-48
2023/06/30 00:24:03;;;;;;;14.30;6.57;;;20.40;99.90;;;20.82;100.00;100660.88;5223653;28;20394;-48
2023/06/30 00:26:38;;;;;;;12.90;5.50;;;20.40;99.90;;;20.77;100.00;100668.84;5222910;28;20056;-49
2023/06/30 00:29:13;;;;;;;;;;;20.40;99.90;;;20.72;100.00;100654.75;5222348;28;20056;-48
2023/06/30 00:31:45;;;;;;;12.98;5.97;;;20.40;99.90;;;20.69;100.00;100656.56;5223296;28;20400;-49
2023/06/30 00:34:18;;;;;;;14.50;6.63;;;20.30;99.90;;;20.58;100.00;100657.53;5221786;28;20037;-48
2023/06/30 00:36:52;;;;;;;14.90;7.60;;;20.30;99.90;;;20.47;100.00;100655.84;5221954;28;20555;-49
2023/06/30 00:39:24;;;;;;;13.93;6.53;;;20.20;99.90;;;20.39;100.00;100665.59;5221626;28;20064;-49
2023/06/30 00:41:58;;;;;;;15.23;8.02;;;20.10;99.90;;;20.32;100.00;100652.41;5221449;28;20053;-48
2023/06/30 00:44:31;;;;;;;15.02;8.10;;;20.00;99.90;;;20.21;100.00;100662.22;5218249;28;20045;-48
2023/06/30 00:47:04;;;;;;;14.35;7.47;;;19.90;99.90;;;20.14;100.00;100663.13;5221919;28;20052;-48
2023/06/30 00:49:40;;;;;;;13.38;7.85;;;19.90;99.90;;;20.09;100.00;100664.06;5222555;28;20055;-48
2023/06/30 00:52:13;;;;;;;14.30;7.45;;;19.80;99.90;;;20.00;100.00;100670.25;5223356;28;20409;-49
2023/06/30 00:54:47;;;;;;;11.55;6.30;;;19.80;99.90;;;19.90;100.00;100665.94;5222988;28;20053;-48
2023/06/30 00:57:25;;;;;;;11.38;5.97;;;19.70;99.90;;;19.79;100.00;100665.97;5222418;28;20045;-48
2023/06/30 01:00:04;;;;;;;11.13;5.32;;;19.60;99.90;;;19.66;100.00;100662.50;5222507;28;20040;-49
2023/06/30 01:02:43;;;;;;;9.25;4.70;;;19.50;99.90;;;19.51;100.00;100665.19;5221599;28;20143;-49
2023/06/30 01:05:26;;;;;;;8.73;4.82;;;19.40;99.90;;;19.42;100.00;100667.84;5222812;28;20403;-48
2023/06/30 01:08:06;;;;;;;8.00;4.05;;;19.30;99.90;;;19.34;100.00;100677.56;5222266;28;20110;-48
2023/06/30 01:10:40;;;;;;;7.10;3.60;;;19.20;99.90;;;19.33;100.00;100681.09;5222484;28;20060;-48
2023/06/30 01:13:15;;;;;;;6.75;3.65;;;19.20;99.90;;;19.33;100.00;100679.34;5222693;28;20510;-48
2023/06/30 01:15:48;;;;;;;5.60;3.17;;;19.10;99.90;;;19.29;100.00;100671.41;5222356;28;20044;-48
2023/06/30 01:18:22;;;;;;;5.72;3.33;;;19.10;99.90;;;19.25;100.00;100675.84;5222094;28;20470;-48
2023/06/30 01:20:55;;;;;;;5.80;3.00;;;19.10;99.90;;;19.22;100.00;100674.06;5222346;28;20063;-48
2023/06/30 01:23:35;;;;;;;5.35;2.83;;;19.00;99.90;;;19.18;100.00;100669.69;5221690;28;20510;-48
2023/06/30 01:26:07;;;;;;;5.97;3.10;;;19.00;99.90;;;19.20;100.00;100673.19;5231134;28;20073;-48
2023/06/30 01:28:45;;;;;;;5.35;3.13;;;19.00;99.90;;;19.17;100.00;100675.88;5221635;28;20045;-48
2023/06/30 01:31:18;;;;;;;5.88;3.38;;;19.00;99.90;;;19.16;100.00;100665.28;5222360;28;20037;-48
2023/06/30 01:33:50;;;;;;;5.75;3.40;;;18.90;99.90;;;19.19;100.00;100665.28;5222389;28;20053;-48
2023/06/30 01:36:23;;;;;;;5.13;3.13;;;18.90;99.90;;;19.18;100.00;100652.97;5222510;28;20401;-49
2023/06/30 01:38:56;;;;;;;6.40;3.90;;;18.90;99.90;;;19.14;100.00;100660.00;5221328;28;20056;-48
2023/06/30 01:41:29;;;;;;;6.45;3.78;;;18.90;99.90;;;19.11;100.00;100652.09;5222039;28;20055;-48
2023/06/30 01:44:03;;;;;;;5.70;3.60;;;18.90;99.90;;;19.09;100.00;100669.69;5222094;28;20071;-49
2023/06/30 01:46:36;;;;;;;6.15;3.67;;;18.90;99.90;;;19.06;100.00;100674.13;5221985;28;20037;-48
2023/06/30 01:49:10;;;;;;;5.57;3.47;;;18.80;99.90;;;18.99;100.00;100678.53;5213938;28;20532;-48
2023/06/30 01:51:42;;;;;;;5.25;3.30;;;18.80;99.90;;;18.91;100.00;100686.47;5222780;28;20049;-48
2023/06/30 01:54:18;;;;;;;4.80;3.20;;;18.70;99.90;;;18.85;100.00;100677.69;5223596;28;20048;-49
2023/06/30 01:56:51;;;;;;;5.38;2.75;;;18.70;99.90;;;18.81;100.00;100686.47;5221441;28;20052;-48
2023/06/30 01:59:28;;;;;;;4.15;2.42;;;18.70;99.90;;;18.78;100.00;100684.72;5221850;28;20055;-48
2023/06/30 02:02:00;;;;;;;3.58;2.25;;;18.60;99.90;;;18.72;100.00;100687.38;5221546;28;20406;-49
2023/06/30 02:04:32;;;;;;;3.45;1.90;;;18.60;99.90;;;18.67;100.00;100697.03;5221871;28;20532;-48
2023/06/30 02:07:05;;;;;;;2.65;1.80;;;18.50;99.90;;;18.64;100.00;100703.16;5221389;28;20051;-48
2023/06/30 02:09:41;;;;;;;2.58;1.60;;;18.40;99.90;;;18.59;100.00;100707.56;5221369;28;20044;-48
2023/06/30 02:12:13;;;;;;;2.08;1.50;;;18.40;99.90;;;18.56;100.00;100701.41;5221433;28;20128;-48
2023/06/30 02:14:47;;;;;;;3.20;1.40;;;18.40;99.90;;;18.49;100.00;100702.28;5221074;28;20045;-49
2023/06/30 02:17:28;;;;;;;2.53;1.73;;;18.30;99.90;;;18.37;100.00;100705.75;5220492;28;20064;-49
2023/06/30 02:20:00;;;;;;;2.97;1.50;;;18.20;99.90;;;18.30;100.00;100702.25;5221645;28;20049;-48
2023/06/30 02:22:33;;;;;;;3.00;1.50;;;18.20;99.90;;;18.31;100.00;100713.66;5221438;28;20197;-49
2023/06/30 02:25:06;;;;;;;1.80;1.40;;;18.10;99.90;;;18.27;100.00;100718.09;5221162;28;20049;-48
2023/06/30 02:27:38;;;;;;;2.13;1.50;;;18.10;99.90;;;18.21;100.00;100707.50;5220901;28;20045;-49
2023/06/30 02:30:13;;;;;;;2.80;1.15;;;18.00;99.90;;;18.19;100.00;100719.78;5214956;28;20638;-48
2023/06/30 02:32:46;;;;;;;2.70;1.40;;;18.00;99.90;;;18.17;100.00;100714.53;5221059;28;20051;-48
2023/06/30 02:35:18;;;;;;;2.00;1.40;;;17.90;99.90;;;18.15;100.00;100716.28;5221116;28;20136;-48
2023/06/30 02:37:51;;;;;;;1.70;1.30;;;17.90;99.90;;;18.11;100.00;100713.63;5220317;28;20059;-49
2023/06/30 02:40:25;;;;;;;1.95;1.13;;;17.90;99.90;;;18.06;100.00;100724.19;5221241;28;20230;-48
2023/06/30 02:42:58;;;;;;;2.47;1.13;;;17.90;99.90;;;17.98;100.00;100719.75;5220890;28;20135;-48
2023/06/30 02:45:32;;;;;;;1.40;1.13;;;17.80;99.90;;;17.95;100.00;100720.63;5221393;28;20075;-48
2023/06/30 02:48:05;;;;;;;2.30;1.30;;;17.80;99.90;;;17.94;100.00;100724.13;5220372;28;20047;-48
2023/06/30 02:50:38;;;;;;;3.38;1.40;;;17.80;99.90;;;17.93;100.00;100719.75;5221047;28;20131;-48
2023/06/30 02:53:10;;;;;;;4.97;1.30;;;17.80;99.90;;;17.91;100.00;100726.75;5221042;28;20155;-48
2023/06/30 02:55:43;;;;;;;2.20;1.38;;;17.80;99.90;;;17.94;100.00;100729.41;5220679;28;20133;-48
2023/06/30 02:58:19;;;;;;;3.65;1.50;;;17.80;99.90;;;17.94;100.00;100729.41;5220681;28;20055;-47
2023/06/30 03:00:55;;;;;;;2.75;1.23;;;17.80;99.90;;;17.95;100.00;100719.75;5220664;28;20055;-48
2023/06/30 03:03:28;;;;;;;5.13;1.48;;;17.70;99.90;;;17.98;100.00;100725.00;5220988;28;20049;-49
2023/06/30 03:06:02;;;;;;;1.75;1.30;;;17.80;99.90;;;17.97;100.00;100728.53;5220747;28;20049;-48
2023/06/30 03:08:37;;;;;;;2.55;1.50;;;17.70;99.90;;;17.97;100.00;100728.53;5219897;28;20510;-48
2023/06/30 03:11:11;;;;;;;4.68;2.22;;;17.80;99.90;;;17.94;100.00;100732.06;5220272;28;20136;-48
2023/06/30 03:13:43;;;;;;;3.42;1.80;;;17.70;99.90;;;17.95;100.00;100741.72;5220485;28;20139;-48
2023/06/30 03:16:18;;;;;;;3.90;1.60;;;17.80;99.90;;;17.97;100.00;100739.09;5213013;28;20065;-48
2023/06/30 03:18:50;;;;;;;3.35;1.60;;;17.80;99.90;;;17.94;100.00;100739.09;5220215;28;20586;-48
2023/06/30 03:21:23;;;;;;;4.45;2.28;;;17.70;99.90;;;17.94;100.00;100726.78;5220856;28;20041;-48
2023/06/30 03:23:56;;;;;;;4.70;2.63;;;17.70;99.90;;;17.90;100.00;100732.91;5220521;28;20448;-48
2023/06/30 03:26:29;;;;;;;6.70;2.90;;;17.70;99.90;;;17.87;100.00;100728.50;5220721;28;20041;-48
2023/06/30 03:29:02;;;;;;;5.70;2.47;;;17.70;99.90;;;17.84;100.00;100728.47;5223167;28;20053;-48
2023/06/30 03:31:37;;;;;;;4.05;2.20;;;17.60;99.90;;;17.80;100.00;100733.72;5224732;28;20520;-49
2023/06/30 03:34:10;;;;;;;5.35;2.60;;;17.60;99.90;;;17.76;100.00;100727.56;5224517;28;20045;-48
2023/06/30 03:36:42;;;;;;;6.25;2.78;;;17.60;99.90;;;17.71;100.00;100716.13;5224286;28;20044;-49
2023/06/30 03:39:16;;;;;;;4.30;2.42;;;17.50;99.90;;;17.72;100.00;100723.16;5216427;28;20136;-48
2023/06/30 03:41:48;;;;;;;6.60;3.13;;;17.60;99.90;;;17.72;100.00;100731.06;5224021;28;20045;-48
2023/06/30 03:44:21;;;;;;;5.47;3.20;;;17.50;99.90;;;17.72;100.00;100730.19;5224841;28;20399;-48
2023/06/30 03:46:55;;;;;;;7.18;3.55;;;17.50;99.90;;;17.70;100.00;100737.19;5224244;28;20139;-48
2023/06/30 03:49:29;;;;;;;10.40;4.47;;;17.50;99.90;;;17.71;100.00;100731.94;5224555;28;20516;-48
2023/06/30 03:52:06;;;;;;;7.85;4.32;;;17.50;99.90;;;17.74;100.00;100736.38;5224087;28;20430;-48
2023/06/30 03:54:39;;;;;;;9.90;5.65;;;17.50;99.90;;;17.73;100.00;100734.56;5224279;28;20053;-48
2023/06/30 03:57:12;;;;;;;9.93;5.30;;;17.50;99.90;;;17.72;100.00;100740.72;5223756;28;20037;-48
2023/06/30 03:59:44;;;;;;;10.38;6.05;;;17.50;99.90;;;17.71;100.00;100746.84;5224284;28;20041;-48
2023/06/30 04:02:18;;;;;;;13.63;6.28;;;17.50;99.90;;;17.73;100.00;100745.13;5224286;28;20071;-48
2023/06/30 04:04:50;;;;;;;11.88;5.90;;;17.50;99.90;;;17.74;100.00;100750.44;5223738;28;20572;-47
2023/06/30 04:07:23;;;;;;;10.52;5.45;;;17.50;99.90;;;17.76;100.00;100745.16;5223827;28;20037;-48
2023/06/30 04:09:58;;;;;;;11.32;5.30;;;17.50;99.90;;;17.78;100.00;100748.66;5223643;28;20060;-48
2023/06/30 04:12:31;;;;;;;10.77;5.55;;;17.50;99.90;;;17.77;100.00;100736.38;5223624;28;20049;-48
2023/06/30 04:15:04;;;;;;;8.73;5.10;;;17.50;99.90;;;17.76;100.00;100745.16;5223796;28;20539;-48
2023/06/30 04:17:38;;;;;;;8.07;4.80;;;17.50;99.90;;;17.77;100.00;100741.63;5223764;28;20048;-48
2023/06/30 04:20:14;;;;;;;10.48;6.03;;;17.50;99.90;;;17.75;100.00;100746.03;5224058;28;20053;-48
2023/06/30 04:22:46;;;;;;;9.40;5.22;;;17.50;99.90;;;17.72;100.00;100753.91;5223764;28;20059;-48
2023/06/30 04:25:19;;;;;;;9.75;4.75;;;17.50;99.90;;;17.70;100.00;100753.00;5215957;28;20071;-48
2023/06/30 04:27:52;;;;;;;9.75;4.88;;;17.50;99.90;;;17.70;100.00;100751.25;5222845;28;20076;-48
2023/06/30 04:30:24;;;;;;;8.38;4.70;;;17.50;99.90;;;17.71;100.00;100746.84;5224054;28;20497;-48
2023/06/30 04:32:58;;;;;;;8.88;4.88;;;17.50;99.90;;;17.70;100.00;100739.81;5223337;28;20048;-47
2023/06/30 04:35:30;;;;;;;9.25;4.53;;;17.50;99.90;;;17.70;100.00;100747.72;5223710;28;20425;-48
2023/06/30 04:38:03;;;;;;;12.80;5.68;;;17.50;99.90;;;17.72;100.00;100756.53;5222492;28;20530;-48
2023/06/30 04:40:35;;;;;;;9.02;4.97;;;17.50;99.90;;;17.71;100.00;100754.75;5222455;28;20033;-48
2023/06/30 04:43:12;;;;;;;9.27;5.05;;;17.50;99.90;;;17.72;100.00;100746.00;5223387;28;20041;-48
2023/06/30 04:45:44;;;;;;;8.07;4.25;;;17.50;99.90;;;17.71;100.00;100741.56;5223646;28;20131;-48
2023/06/30 04:48:18;;;;;;;9.80;4.20;;;17.50;99.90;;;17.71;100.00;100733.66;5222922;28;20091;-48
2023/06/30 04:50:51;;;;;;;7.57;3.92;;;17.50;99.90;;;17.74;100.00;100739.00;5223075;28;20135;-48
2023/06/30 04:53:23;;;;;;;7.70;4.20;;;17.50;99.90;;;17.76;100.00;100743.41;5224627;28;20049;-49
2023/06/30 04:55:55;;;;;;;6.97;3.83;;;17.50;99.90;;;17.81;100.00;100748.69;5222868;28;20053;-49
2023/06/30 04:58:28;;;;;;;6.80;3.58;;;17.60;99.90;;;17.83;100.00;100758.38;5223030;28;20045;-48
2023/06/30 05:01:00;;;;;;;7.38;4.22;;;17.60;99.90;;;17.84;100.00;100760.13;5224151;28;20132;-49
2023/06/30 05:03:34;;;;;;;8.07;4.28;;;17.60;99.90;;;17.81;100.00;100769.78;5223222;28;20044;-48
2023/06/30 05:06:07;;;;;;;8.38;4.15;;;17.50;99.90;;;17.78;100.00;100783.81;5222590;28;20128;-49
2023/06/30 05:08:39;;;;;;;11.95;5.15;;;17.50;99.90;;;17.73;100.00;100782.03;5222552;28;20068;-48
2023/06/30 05:11:11;;;;;;;8.02;4.47;;;17.50;99.90;;;17.67;100.00;100785.50;5222405;28;20053;-49
2023/06/30 05:13:46;;;;;;;13.70;4.22;;;17.40;99.90;;;17.67;100.00;100776.69;5222803;28;20068;-48
2023/06/30 05:16:19;;;;;;;9.60;4.05;;;17.40;99.90;;;17.71;100.00;100775.84;5222552;28;20045;-48
2023/06/30 05:18:52;;;;;;;7.88;3.92;;;17.40;99.90;;;17.76;100.00;100779.44;5222824;28;20049;-48
2023/06/30 05:21:25;;;;;;;9.77;4.32;;;17.50;99.90;;;17.78;100.00;100775.03;5222623;28;20052;-49
2023/06/30 05:24:00;;;;;;;9.02;4.03;;;17.50;99.90;;;17.80;100.00;100774.19;5222166;28;20055;-49
2023/06/30 05:26:33;;;;;;;11.15;4.70;;;17.50;99.90;;;17.77;100.00;100760.97;5222530;28;20397;-48
2023/06/30 05:29:06;;;;;;;9.73;3.97;;;17.50;99.90;;;17.77;100.00;100768.00;5222542;28;20076;-48
2023/06/30 05:31:39;;;;;;;8.88;3.83;;;17.50;99.90;;;17.76;100.00;100760.97;5222627;28;20379;-48
2023/06/30 05:34:15;;;;;;;8.48;4.20;;;17.50;99.90;;;17.75;100.00;100775.03;5222337;28;20071;-49
2023/06/30 05:36:47;;;;;;;8.05;4.10;;;17.50;99.90;;;17.75;100.00;100783.81;5222041;28;20041;-49
2023/06/30 05:39:20;;;;;;;7.75;3.80;;;17.50;99.90;;;17.77;100.00;100773.28;5222074;28;20140;-48
2023/06/30 05:41:55;;;;;;;8.20;4.28;;;17.50;99.90;;;17.80;100.00;100774.19;5222247;28;20056;-48
2023/06/30 05:44:28;;;;;;;10.95;4.20;;;17.50;99.90;;;17.82;100.00;100766.28;5222411;28;20045;-49
2023/06/30 05:47:00;;;;;;;7.82;4.05;;;17.50;99.90;;;17.82;100.00;100763.63;5221601;28;20049;-48
2023/06/30 05:49:34;;;;;;;10.07;4.78;;;17.50;99.90;;;17.78;100.00;100759.22;5222311;28;20060;-48
2023/06/30 05:52:09;;;;;;;10.32;4.00;;;17.50;99.90;;;17.73;100.00;100772.34;5221327;28;20053;-48
2023/06/30 05:54:42;;;;;;;8.20;4.57;;;17.40;99.90;;;17.70;100.00;100766.19;5222090;28;20053;-48
2023/06/30 05:57:15;;;;;;;8.65;4.10;;;17.40;99.90;;;17.66;100.00;100772.28;5221493;28;20056;-48
2023/06/30 05:59:47;;;;;;;7.40;3.63;;;17.40;99.90;;;17.66;100.00;100774.94;5222081;28;20099;-48
2023/06/30 06:02:20;;;;;;;8.30;3.65;;;17.40;99.90;;;17.70;100.00;100782.00;5221893;28;20049;-48
2023/06/30 06:04:54;;;;;;;7.60;3.65;;;17.40;99.90;;;17.70;100.00;100782.00;5221629;28;20049;-48
2023/06/30 06:07:26;;;;;;;12.05;4.40;;;17.40;99.90;;;17.72;100.00;100782.91;5221154;28;20037;-47
2023/06/30 06:09:59;;;;;;;10.57;3.97;;;17.40;99.90;;;17.71;100.00;100789.03;5223174;28;20076;-48
2023/06/30 06:12:31;;;;;;;13.25;5.35;;;17.40;99.90;;;17.72;100.00;100785.53;5222032;28;20045;-47
2023/06/30 06:15:05;;;;;;;8.52;4.15;;;17.40;99.90;;;17.71;100.00;100781.13;5221397;28;20056;-47
2023/06/30 06:17:37;;;;;;;8.57;3.88;;;17.40;99.90;;;17.73;100.00;100782.03;5221433;28;20261;-47
2023/06/30 06:20:12;;;;;;;5.82;3.42;;;17.40;99.90;;;17.77;100.00;100784.69;5221361;28;20517;-47
2023/06/30 06:22:44;;;;;;;6.55;3.53;;;17.50;99.90;;;17.89;100.00;100773.34;5221678;28;20509;-47
2023/06/30 06:25:17;;;;;;;6.10;2.95;;;17.50;99.90;;;17.99;100.00;100780.41;5220939;28;20056;-47
2023/06/30 06:27:49;;;;;;;5.25;3.05;;;17.70;99.90;;;18.05;100.00;100784.81;5220958;28;20506;-47
2023/06/30 06:30:21;;;;;;;8.05;4.07;;;17.70;99.90;;;18.10;100.00;100789.25;5221147;28;20044;-47
2023/06/30 06:32:54;;;;;;;10.30;4.50;;;17.80;99.90;;;18.09;100.00;100792.75;5221149;28;20056;-47
2023/06/30 06:35:28;;;;;;;8.90;4.35;;;17.80;99.90;;;18.11;100.00;100796.28;5221132;28;20048;-47
2023/06/30 06:38:00;;;;;;;6.93;4.38;;;17.80;99.90;;;18.15;100.00;100791.91;5221100;28;20049;-48
2023/06/30 06:40:33;;;;;;;10.45;4.90;;;17.90;99.90;;;18.12;100.00;100790.13;5238100;28;20402;-48
2023/06/30 06:43:06;;;;;;;9.77;4.63;;;17.90;99.90;;;18.07;100.00;100791.88;5221310;28;20049;-47
2023/06/30 06:45:39;;;;;;;9.23;4.90;;;17.80;99.90;;;18.06;100.00;100787.50;5221684;28;20391;-47
2023/06/30 06:48:23;;;;;;;9.80;5.30;;;17.80;99.90;;;18.06;100.00;100787.50;5220521;28;20470;-47
2023/06/30 06:50:59;;;;;;;10.57;5.03;;;17.80;99.90;;;18.18;100.00;100786.63;5220834;28;20577;-47
2023/06/30 06:53:33;;;;;;;9.63;4.85;;;17.90;99.90;;;18.30;100.00;100789.31;5212847;28;20052;-47
2023/06/30 06:56:09;;;;;;;12.15;5.97;;;18.00;99.90;;;18.39;100.00;100796.41;5220759;28;20107;-47
2023/06/30 06:58:42;;;;;;;10.27;4.93;;;18.00;99.90;;;18.47;100.00;100794.66;5220607;28;20056;-47
2023/06/30 07:01:14;;;;;;;12.07;6.25;;;18.10;99.90;;;18.55;100.00;100786.75;5220641;28;20056;-47
2023/06/30 07:03:47;;;;;;;12.40;5.97;;;18.20;99.90;;;18.58;100.00;100798.22;5220370;28;20041;-48
2023/06/30 07:06:22;;;;;;;10.10;5.45;;;18.20;99.90;;;18.63;100.00;100799.06;5220500;28;20059;-47
2023/06/30 07:08:54;;;;;;;11.10;6.40;;;18.30;99.90;;;18.69;100.00;100799.13;5220710;28;20045;-47
2023/06/30 07:11:27;;;;;;;11.63;5.40;;;18.30;99.90;;;18.72;100.00;100789.47;5220400;28;20048;-47
2023/06/30 07:13:59;;;;;;;10.38;5.63;;;18.30;99.90;;;18.74;100.00;100798.25;5221035;28;20418;-47
2023/06/30 07:16:31;;;;;;;9.15;5.10;;;18.40;99.90;;;18.74;100.00;100791.22;5220849;28;20136;-47
2023/06/30 07:19:04;;;;;;;9.82;5.53;;;18.40;99.90;;;18.77;100.00;100803.53;5220220;28;20041;-47
2023/06/30 07:21:38;;;;;;;9.50;5.30;;;18.50;99.90;;;18.76;100.00;100797.38;5220710;28;20140;-47
2023/06/30 07:24:10;;;;;;;10.00;5.50;;;18.50;99.90;;;18.81;100.00;100805.31;5220429;28;20057;-47
2023/06/30 07:26:43;;;;;;;11.00;5.60;;;18.50;99.90;;;18.83;100.00;100803.53;5220765;28;20514;-47
2023/06/30 07:29:15;;;;;;;10.20;5.32;;;18.50;99.90;;;18.88;100.00;100817.63;5220207;28;20050;-47
2023/06/30 07:31:47;;;;;;;9.40;6.13;;;18.50;99.90;;;18.90;100.00;100810.59;5220514;28;20053;-47
2023/06/30 07:34:23;;;;;;;10.57;5.50;;;18.60;99.90;;;18.92;100.00;100822.06;5220426;28;20059;-47
2023/06/30 07:36:57;;;;;;;8.68;5.40;;;18.60;99.90;;;18.90;100.00;100821.16;5220557;28;20053;-47
2023/06/30 07:39:29;;;;;;;10.50;5.80;;;18.60;99.90;;;18.91;100.00;100812.38;5220129;28;20108;-47
2023/06/30 07:42:01;;;;;;;8.55;5.65;;;18.60;99.90;;;18.94;100.00;100817.66;5220578;28;20431;-47
2023/06/30 07:44:34;;;;;;;10.35;5.40;;;18.60;99.90;;;18.99;100.00;100813.25;5220494;28;20141;-47
2023/06/30 07:47:07;;;;;;;8.77;4.78;;;18.60;99.90;;;19.00;100.00;100825.56;5220326;28;20059;-47
2023/06/30 07:49:39;;;;;;;6.03;3.85;;;18.60;99.90;;;19.07;100.00;100831.75;5220568;28;20056;-47
2023/06/30 07:52:16;;;;;;;7.47;3.60;;;18.70;99.90;;;19.23;100.00;100834.41;5220070;28;20096;-48
2023/06/30 07:54:52;;;;;;;5.45;3.47;;;18.80;99.90;;;19.44;100.00;100822.06;5220712;28;20129;-47
2023/06/30 07:57:27;;;;;;;5.30;3.35;;;19.10;99.90;;;19.65;100.00;100829.97;5218884;28;20049;-48
2023/06/30 07:59:59;;;;;;;6.00;3.08;;;19.30;99.90;;;19.82;100.00;100837.00;5235901;28;20049;-47
2023/06/30 08:02:31;;;;;;;5.65;2.65;;;19.40;99.90;;;19.98;100.00;100838.72;5209654;28;20052;-47
2023/06/30 08:05:04;;;;;;;4.75;2.42;;;19.60;99.90;;;20.13;100.00;100843.94;5220146;28;20135;-48
2023/06/30 08:07:38;;;;;;;5.82;2.58;;;19.80;99.90;;;20.43;100.00;100845.59;5220061;28;20056;-50
2023/06/30 08:10:11;;;;;;;6.20;2.88;;;19.90;99.90;;;20.79;100.00;100841.88;5220020;28;20395;-48
2023/06/30 08:12:43;;;;;;;6.90;2.80;;;20.20;99.90;;;21.16;100.00;100849.59;5220286;28;20534;-49
2023/06/30 08:15:16;;;;;;;6.60;2.90;;;20.40;99.90;;;21.50;100.00;100846.69;5221674;28;20053;-49
2023/06/30 08:17:48;;;;;;;6.43;2.30;;;20.70;99.90;;;21.90;100.00;100839.19;5223544;28;20067;-50
2023/06/30 08:20:21;;;;;;;6.05;2.38;;;21.00;99.90;;;22.36;100.00;100839.56;5223646;28;20514;-48
2023/06/30 08:22:55;;;;;;;7.47;1.90;;;21.30;99.90;;;23.23;95.80;100834.78;5225162;28;20045;-49
2023/06/30 08:25:27;;;;;;;;;;;21.80;99.90;;;23.85;91.03;100824.81;5223734;28;20060;-51
2023/06/30 08:28:00;;;;;;;5.22;1.98;;;22.20;99.90;;;24.46;85.77;100830.72;5223329;28;20643;-49
2023/06/30 08:30:32;;;;;;;3.78;1.52;;;22.60;99.90;;;25.11;83.79;100831.03;5223313;28;20067;-48
2023/06/30 08:33:04;;;;;;;3.97;1.55;;;23.00;99.40;;;25.85;81.39;100830.88;5223633;28;20045;-50
2023/06/30 08:35:37;;;;;;;4.47;1.30;;;23.50;98.80;;;26.78;78.29;100829.91;5222141;28;20650;-51
2023/06/30 08:38:11;;;;;;;4.15;1.58;;;24.00;97.70;;;27.22;74.92;100825.84;5222673;28;20052;-49
2023/06/30 08:40:43;;;;;;;5.45;1.75;;;24.40;96.00;;;27.10;73.41;100825.38;5223672;28;20060;-49
2023/06/30 08:43:16;;;;;;;5.13;1.60;;;24.60;94.50;;;27.90;70.92;100828.84;5223167;28;20063;-51
2023/06/30 08:45:50;;;;;;;3.30;1.50;;;25.10;93.10;;;29.14;67.93;100833.00;5223375;28;20530;-49
2023/06/30 08:48:28;;;;;;;3.92;1.33;;;25.80;91.90;;;30.41;63.29;100832.81;5222612;28;20406;-50
2023/06/30 08:51:01;;;;;;;2.67;1.00;;;26.70;90.10;;;31.41;59.40;100832.41;5223289;28;20056;-50
2023/06/30 08:53:35;;;;;;;3.10;1.20;;;27.60;85.00;;;32.17;56.22;100832.91;5220730;28;20052;-50
2023/06/30 08:56:10;;;;;;;4.38;1.50;;;28.40;81.00;;;31.77;55.04;100828.78;5213172;28;20064;-51
2023/06/30 08:58:42;;;;;;;3.50;1.30;;;28.50;75.90;;;32.07;55.13;100831.66;5222257;28;20049;-52
2023/06/30 09:01:15;;;;;;;4.35;1.50;;;28.70;75.00;;;31.86;54.72;100837.25;5214312;28;20379;-51
2023/06/30 09:03:47;;;;;;;3.78;1.30;;;28.70;73.30;;;32.13;53.67;100829.50;5227498;28;20099;-49
2023/06/30 09:06:21;;;;;;;3.85;1.23;;;28.90;71.80;;;32.53;51.68;100824.63;5222620;28;20146;-49
2023/06/30 09:09:02;;;;;;;3.33;1.20;;;29.10;69.50;;;31.77;51.76;100826.94;5222491;28;20049;-50
2023/06/30 09:11:35;;;;;;;2.60;1.17;;;28.90;68.10;;;29.89;55.60;100822.63;5222059;28;20049;-49
2023/06/30 09:14:10;;;;;;;3.70;1.23;;;28.00;69.70;;;29.14;58.03;100819.56;5222650;28;20053;-48
2023/06/30 09:16:46;;;;;;;2.67;1.05;;;27.20;71.90;;;29.28;57.64;100825.25;5214594;28;20053;-50
2023/06/30 09:19:18;;;;;;;5.93;1.40;;;27.00;72.50;;;29.21;57.41;100821.06;5221893;28;20414;-49
2023/06/30 09:21:52;;;;;;;2.85;1.20;;;27.00;72.40;;;29.24;57.44;100823.63;5222669;28;20044;-49
2023/06/30 09:24:27;;;;;;;4.25;1.08;;;26.90;72.60;;;29.15;56.45;100822.22;5224061;28;20139;-49
2023/06/30 09:27:00;;;;;;;3.30;1.20;;;26.80;71.60;;;29.54;57.92;100820.59;5222279;28;20051;-51
2023/06/30 09:29:34;;;;;;;2.22;1.38;;;26.90;73.00;;;30.13;55.98;100809.03;5221918;28;20421;-49
2023/06/30 09:32:08;;;;;;;2.30;0.93;;;27.40;72.20;;;30.47;55.28;100802.94;5222260;28;20055;-49
2023/06/30 09:34:43;;;;;;;4.25;0.90;;;27.80;70.90;;;30.02;54.64;100800.56;5222069;28;20385;-49
2023/06/30 09:37:16;;;;;;;2.42;1.30;;;27.80;69.50;;;29.18;54.19;100807.78;5217663;28;20060;-50
2023/06/30 09:39:52;;;;;;;2.17;1.00;;;27.50;67.70;;;28.50;54.86;100806.09;5223774;28;20044;-49
2023/06/30 09:42:28;;;;;;;1.88;1.00;;;27.10;67.30;;;27.79;55.45;100815.88;5221825;28;20057;-49
2023/06/30 09:45:02;;;;;;;2.60;0.98;;;26.70;67.00;;;27.36;56.22;100805.75;5219950;28;20099;-48
2023/06/30 09:47:34;;;;;;;1.58;0.98;;;26.40;67.60;;;27.16;56.73;100807.31;5221855;28;20048;-48
2023/06/30 09:50:08;;;;;;;2.97;1.00;;;26.20;67.80;;;26.84;57.14;100799.44;5222053;28;20048;-48
2023/06/30 09:52:41;;;;;;;;;;;26.00;67.80;;;26.58;58.97;100801.13;5223378;28;20405;-48
2023/06/30 09:55:19;;;;;;;2.00;1.02;;;25.80;69.40;;;26.42;59.61;100797.19;5221861;28;19920;-52
2023/06/30 09:57:54;;;;;;;2.25;0.90;;;25.60;69.80;;;26.33;59.37;100795.63;5223298;28;20135;-47
2023/06/30 10:00:28;;;;;;;2.38;0.93;;;25.50;70.00;;;26.13;59.46;100793.56;5221374;28;20049;-48
2023/06/30 10:03:06;;;;;;;2.75;0.88;;;25.30;69.90;;;26.08;59.05;100792.84;5222416;28;20048;-47
2023/06/30 10:05:39;;;;;;;4.03;1.33;;;25.30;69.70;;;26.03;58.14;100792.09;5222663;28;20284;-47
2023/06/30 10:08:13;;;;;;;2.15;0.93;;;25.20;68.60;;;26.05;57.53;100779.56;5222758;28;20077;-48
2023/06/30 10:10:47;;;;;;;2.35;0.80;;;25.20;68.20;;;26.09;57.61;100789.25;5222676;28;20105;-48
2023/06/30 10:13:20;;;;;;;2.67;1.00;;;25.30;68.10;;;26.17;57.85;100789.88;5221352;28;20099;-48
2023/06/30 10:15:53;;;;;;;2.35;0.90;;;25.30;68.00;;;26.02;57.03;100774.31;5221837;28;20059;-48
2023/06/30 10:18:26;;;;;;;1.58;0.75;;;25.30;67.50;;;26.01;56.83;100777.88;5221217;28;20036;-47
2023/06/30 10:20:58;;;;;;;2.25;0.80;;;25.30;67.30;;;26.07;56.80;100783.03;5221700;28;20049;-47
2023/06/30 10:23:33;;;;;;;1.17;0.77;;;25.30;67.10;;;26.07;55.05;100785.72;5218983;28;20049;-47
2023/06/30 10:26:08;;;;;;;1.23;0.60;;;25.30;65.40;;;25.96;54.12;100779.84;5221416;28;20140;-47
2023/06/30 10:28:42;;;;;;;1.92;0.88;;;25.20;64.30;;;25.83;53.38;100767.75;5221080;28;20055;-47
2023/06/30 10:31:15;;;;;;;2.03;0.80;;;25.10;63.60;;;25.80;55.06;100765.16;5220553;28;20064;-48
2023/06/30 10:33:48;;;;;;;2.58;0.90;;;25.10;65.00;;;25.85;55.76;100761.44;5221774;28;20490;-47